createdAt,value
2023-02-04T00:00:15.836Z,4.70
2023-02-04T00:02:42.739Z,4.70
2023-02-04T00:05:11.815Z,4.70
2023-02-04T00:07:40.490Z,4.70
2023-02-04T00:10:08.709Z,4.70
2023-02-04T00:12:35.655Z,4.70
2023-02-04T00:15:02.558Z,4.70
2023-02-04T00:17:29.355Z,4.70
2023-02-04T00:19:56.169Z,4.70
2023-02-04T00:22:23.232Z,4.70
2023-02-04T00:24:50.635Z,4.70
2023-02-04T00:27:17.740Z,4.70
2023-02-04T00:29:44.561Z,4.70
2023-02-04T00:32:11.573Z,4.70
2023-02-04T00:34:38.516Z,4.70
2023-02-04T00:37:05.499Z,4.70
2023-02-04T00:39:32.308Z,4.70
2023-02-04T00:41:59.121Z,4.70
2023-02-04T00:44:26.081Z,4.70
2023-02-04T00:46:52.944Z,4.80
2023-02-04T00:49:19.740Z,4.80
2023-02-04T00:51:46.897Z,4.80
2023-02-04T00:54:15.904Z,4.80
2023-02-04T00:56:44.097Z,4.80
2023-02-04T00:59:11.373Z,4.80
2023-02-04T01:01:38.703Z,4.80
2023-02-04T01:04:05.815Z,4.90
2023-02-04T01:06:33.309Z,4.90
2023-02-04T01:09:01.416Z,4.80
2023-02-04T01:11:29.414Z,4.90
2023-02-04T01:13:56.255Z,4.90
2023-02-04T01:16:23.603Z,4.90
2023-02-04T01:18:50.547Z,4.90
2023-02-04T01:21:17.444Z,4.90
2023-02-04T01:23:44.274Z,4.90
2023-02-04T01:26:11.004Z,4.80
2023-02-04T01:28:37.754Z,4.80
2023-02-04T01:31:04.567Z,4.90
2023-02-04T01:33:31.396Z,4.80
2023-02-04T01:35:58.211Z,4.90
2023-02-04T01:38:24.959Z,4.90
2023-02-04T01:40:52.217Z,4.90
2023-02-04T01:43:22.454Z,4.90
2023-02-04T01:45:50.406Z,4.80
2023-02-04T01:48:22.532Z,4.90
2023-02-04T01:50:51.810Z,4.90
2023-02-04T01:53:24.815Z,4.90
2023-02-04T01:55:52.668Z,4.90
2023-02-04T01:58:19.865Z,4.90
2023-02-04T02:00:46.959Z,4.90
2023-02-04T02:03:13.775Z,4.90
2023-02-04T02:05:52.593Z,4.90
2023-02-04T02:08:19.835Z,4.90
2023-02-04T02:10:48.735Z,5.00
2023-02-04T02:13:18.756Z,5.00
2023-02-04T02:15:46.571Z,5.00
2023-02-04T02:18:13.783Z,5.00
2023-02-04T02:20:43.797Z,4.90
2023-02-04T02:23:35.850Z,4.90
2023-02-04T02:26:02.740Z,4.90
2023-02-04T02:28:29.529Z,5.00
2023-02-04T02:30:56.347Z,4.90
2023-02-04T02:33:23.531Z,5.00
2023-02-04T02:35:50.576Z,5.00
2023-02-04T02:38:19.153Z,5.00
2023-02-04T02:40:46.972Z,5.00
2023-02-04T02:43:32.588Z,5.00
2023-02-04T02:46:07.045Z,5.00
2023-02-04T02:48:33.860Z,5.00
2023-02-04T02:51:00.810Z,5.00
2023-02-04T02:53:27.786Z,5.00
2023-02-04T02:55:54.659Z,4.90
2023-02-04T02:58:29.631Z,4.90
2023-02-04T03:00:57.531Z,4.90
2023-02-04T03:03:31.476Z,4.90
2023-02-04T03:06:02.101Z,4.90
2023-02-04T03:08:29.147Z,4.80
2023-02-04T03:10:55.989Z,4.80
2023-02-04T03:13:22.948Z,4.80
2023-02-04T03:15:51.450Z,4.80
2023-02-04T03:18:20.127Z,4.70
2023-02-04T03:20:48.328Z,4.70
2023-02-04T03:23:15.432Z,4.70
2023-02-04T03:25:42.457Z,4.60
2023-02-04T03:28:09.520Z,4.60
2023-02-04T03:30:36.515Z,4.50
2023-02-04T03:33:03.464Z,4.50
2023-02-04T03:35:30.196Z,4.50
2023-02-04T03:37:57.035Z,4.50
2023-02-04T03:40:23.798Z,4.40
2023-02-04T03:42:50.571Z,4.40
2023-02-04T03:45:17.606Z,4.40
2023-02-04T03:47:44.386Z,4.40
2023-02-04T03:50:13.216Z,4.30
2023-02-04T03:52:40.128Z,4.40
2023-02-04T03:55:07.311Z,4.30
2023-02-04T03:57:34.124Z,4.30
2023-02-04T04:00:00.862Z,4.30
2023-02-04T04:02:27.691Z,4.20
2023-02-04T04:04:54.464Z,4.20
2023-02-04T04:07:21.217Z,4.20
2023-02-04T04:09:47.914Z,4.20
2023-02-04T04:12:14.618Z,4.10
2023-02-04T04:14:41.343Z,4.00
2023-02-04T04:17:08.243Z,4.00
2023-02-04T04:19:35.598Z,4.00
2023-02-04T04:22:02.376Z,4.00
2023-02-04T04:24:29.102Z,4.00
2023-02-04T04:26:55.951Z,3.90
2023-02-04T04:29:22.781Z,3.90
2023-02-04T04:31:49.681Z,3.80
2023-02-04T04:34:16.429Z,3.80
2023-02-04T04:36:43.271Z,3.80
2023-02-04T04:39:10.064Z,3.70
2023-02-04T04:41:36.821Z,3.60
2023-02-04T04:44:03.618Z,3.50
2023-02-04T04:46:30.494Z,3.40
2023-02-04T04:48:57.340Z,3.30
2023-02-04T04:51:24.177Z,3.30
2023-02-04T04:53:51.137Z,3.30
2023-02-04T04:56:19.192Z,3.20
2023-02-04T04:58:45.956Z,3.20
2023-02-04T05:01:12.818Z,3.20
2023-02-04T05:03:39.799Z,3.20
2023-02-04T05:06:06.599Z,3.20
2023-02-04T05:08:34.996Z,3.20
2023-02-04T05:11:03.499Z,3.20
2023-02-04T05:13:30.788Z,3.20
2023-02-04T05:15:57.581Z,3.10
2023-02-04T05:18:24.675Z,3.10
2023-02-04T05:20:51.445Z,3.10
2023-02-04T05:23:18.371Z,3.10
2023-02-04T05:25:45.116Z,3.00
2023-02-04T05:28:11.957Z,3.00
2023-02-04T05:30:38.834Z,2.90
2023-02-04T05:33:05.755Z,2.90
2023-02-04T05:35:32.503Z,2.90
2023-02-04T05:37:59.269Z,2.80
2023-02-04T05:40:26.013Z,2.80
2023-02-04T05:42:52.779Z,2.70
2023-02-04T05:45:19.545Z,2.70
2023-02-04T05:47:46.601Z,2.70
2023-02-04T05:50:13.631Z,2.70
2023-02-04T05:52:40.634Z,2.70
2023-02-04T05:55:08.012Z,2.70
2023-02-04T05:57:34.839Z,2.70
2023-02-04T06:00:01.710Z,2.60
2023-02-04T06:02:28.441Z,2.60
2023-02-04T06:04:55.192Z,2.70
2023-02-04T06:07:21.928Z,2.60
2023-02-04T06:09:48.745Z,2.60
2023-02-04T06:12:15.514Z,2.60
2023-02-04T06:14:42.352Z,2.60
2023-02-04T06:17:09.152Z,2.60
2023-02-04T06:19:35.951Z,2.60
2023-02-04T06:22:02.879Z,2.60
2023-02-04T06:24:29.937Z,2.60
2023-02-04T06:26:56.704Z,2.60
2023-02-04T06:29:23.433Z,2.60
2023-02-04T06:31:50.281Z,2.60
2023-02-04T06:34:17.143Z,2.60
2023-02-04T06:36:43.909Z,2.60
2023-02-04T06:39:10.703Z,2.60
2023-02-04T06:41:37.447Z,2.60
2023-02-04T06:44:04.187Z,2.60
2023-02-04T06:46:30.980Z,2.60
2023-02-04T06:48:57.834Z,2.60
2023-02-04T06:51:24.585Z,2.60
2023-02-04T06:53:52.545Z,2.60
2023-02-04T06:56:19.293Z,2.60
2023-02-04T06:58:46.033Z,2.60
2023-02-04T07:01:12.910Z,2.60
2023-02-04T07:03:39.778Z,2.60
2023-02-04T07:06:06.642Z,2.60
2023-02-04T07:08:33.819Z,2.60
2023-02-04T07:11:00.626Z,2.70
2023-02-04T07:13:27.430Z,2.70
2023-02-04T07:15:54.290Z,2.70
2023-02-04T07:18:21.409Z,2.70
2023-02-04T07:20:48.168Z,2.70
2023-02-04T07:23:14.957Z,2.80
2023-02-04T07:25:41.770Z,2.80
2023-02-04T07:28:08.635Z,2.80
2023-02-04T07:30:35.847Z,2.90
2023-02-04T07:33:03.317Z,2.90
2023-02-04T07:35:30.089Z,2.90
2023-02-04T07:37:56.892Z,2.90
2023-02-04T07:40:23.655Z,2.90
2023-02-04T07:42:50.393Z,3.00
2023-02-04T07:45:17.268Z,3.00
2023-02-04T07:47:44.041Z,3.10
2023-02-04T07:50:10.849Z,3.10
2023-02-04T07:52:37.667Z,3.20
2023-02-04T07:55:05.694Z,3.20
2023-02-04T07:57:32.558Z,3.30
2023-02-04T07:59:59.381Z,3.30
2023-02-04T08:02:26.854Z,3.40
2023-02-04T08:04:53.709Z,3.50
2023-02-04T08:07:20.434Z,3.50
2023-02-04T08:09:47.212Z,3.50
2023-02-04T08:12:13.985Z,3.60
2023-02-04T08:14:41.258Z,3.60
2023-02-04T08:17:08.042Z,3.60
2023-02-04T08:19:34.805Z,3.70
2023-02-04T08:22:01.548Z,3.70
2023-02-04T08:24:28.322Z,3.80
2023-02-04T08:26:55.071Z,3.80
2023-02-04T08:29:21.901Z,3.90
2023-02-04T08:31:48.775Z,4.00
2023-02-04T08:34:15.625Z,4.00
2023-02-04T08:36:45.243Z,4.00
2023-02-04T08:39:15.283Z,4.00
2023-02-04T08:41:42.017Z,4.10
2023-02-04T08:44:08.887Z,4.10
2023-02-04T08:46:35.686Z,4.10
2023-02-04T08:49:02.630Z,4.10
2023-02-04T08:51:29.930Z,4.10
2023-02-04T08:53:56.761Z,4.10
2023-02-04T08:56:23.553Z,4.20
2023-02-04T08:58:51.060Z,4.30
2023-02-04T09:01:17.860Z,4.40
2023-02-04T09:03:44.962Z,4.50
2023-02-04T09:06:12.256Z,4.50
2023-02-04T09:08:39.013Z,4.60
2023-02-04T09:11:05.935Z,4.50
2023-02-04T09:13:33.761Z,4.60
2023-02-04T09:16:00.646Z,4.60
2023-02-04T09:18:27.632Z,4.60
2023-02-04T09:20:54.416Z,4.60
2023-02-04T09:23:21.449Z,4.60
2023-02-04T09:25:48.173Z,4.60
2023-02-04T09:28:17.119Z,4.60
2023-02-04T09:30:45.775Z,4.60
2023-02-04T09:33:14.178Z,4.60
2023-02-04T09:35:40.996Z,4.70
2023-02-04T09:38:07.731Z,4.70
2023-02-04T09:40:37.987Z,4.80
2023-02-04T09:43:06.803Z,4.90
2023-02-04T09:45:35.223Z,5.00
2023-02-04T09:48:04.665Z,5.00
2023-02-04T09:50:32.919Z,5.10
2023-02-04T09:53:06.356Z,5.10
2023-02-04T09:55:37.522Z,5.20
2023-02-04T09:58:11.756Z,5.20
2023-02-04T10:00:38.679Z,5.20
2023-02-04T10:03:16.897Z,5.30
2023-02-04T10:05:45.115Z,5.30
2023-02-04T10:08:17.466Z,5.30
2023-02-04T10:10:46.394Z,5.40
2023-02-04T10:13:30.635Z,5.30
2023-02-04T10:15:58.698Z,5.30
2023-02-04T10:18:28.831Z,5.30
2023-02-04T10:21:14.313Z,5.20
2023-02-04T10:23:42.396Z,5.20
2023-02-04T10:26:12.467Z,5.20
2023-02-04T10:28:42.676Z,5.30
2023-02-04T10:31:31.801Z,5.40
2023-02-04T10:34:12.352Z,5.40
2023-02-04T10:36:40.634Z,5.40
2023-02-04T10:39:19.353Z,5.50
2023-02-04T10:41:57.375Z,5.50
2023-02-04T10:44:31.206Z,5.30
2023-02-04T10:47:03.959Z,5.20
2023-02-04T10:49:31.671Z,5.20
2023-02-04T10:51:58.591Z,5.20
2023-02-04T10:54:32.305Z,5.20
2023-02-04T10:57:09.813Z,5.10
2023-02-04T10:59:37.071Z,5.10
2023-02-04T11:02:30.219Z,5.00
2023-02-04T11:04:56.940Z,5.10
2023-02-04T11:07:24.116Z,5.10
2023-02-04T11:09:51.145Z,5.10
2023-02-04T11:12:36.433Z,5.00
2023-02-04T11:15:04.138Z,5.00
2023-02-04T11:17:32.445Z,5.10
2023-02-04T11:20:02.457Z,5.10
2023-02-04T11:22:44.189Z,5.20
2023-02-04T11:25:38.125Z,5.10
2023-02-04T11:28:25.471Z,5.10
2023-02-04T11:31:03.814Z,5.10
2023-02-04T11:33:42.211Z,5.20
2023-02-04T11:36:12.104Z,5.30
2023-02-04T11:38:39.490Z,5.30
2023-02-04T11:41:06.490Z,5.40
2023-02-04T11:43:34.886Z,5.50
2023-02-04T11:46:13.518Z,5.60
2023-02-04T11:48:40.429Z,5.70
2023-02-04T11:51:16.633Z,5.80
2023-02-04T11:53:44.038Z,5.80
2023-02-04T11:56:18.443Z,5.80
2023-02-04T11:58:45.565Z,5.80
2023-02-04T12:01:29.901Z,5.70
2023-02-04T12:03:59.193Z,5.80
2023-02-04T12:06:29.797Z,6.10
2023-02-04T12:09:06.200Z,6.20
2023-02-04T12:11:33.593Z,6.10
2023-02-04T12:14:13.005Z,6.00
2023-02-04T12:16:47.285Z,6.00
2023-02-04T12:19:15.547Z,5.90
2023-02-04T12:21:42.363Z,5.90
2023-02-04T12:24:09.754Z,5.90
2023-02-04T12:26:36.590Z,6.00
2023-02-04T12:29:05.659Z,6.00
2023-02-04T12:31:33.542Z,5.80
2023-02-04T12:34:05.021Z,5.80
2023-02-04T12:36:41.892Z,5.90
2023-02-04T12:39:12.856Z,5.90
2023-02-04T12:41:39.683Z,5.80
2023-02-04T12:44:06.632Z,5.60
2023-02-04T12:46:33.675Z,5.70
2023-02-04T12:49:00.581Z,5.60
2023-02-04T12:51:27.523Z,5.50
2023-02-04T12:53:54.547Z,5.50
2023-02-04T12:56:24.142Z,5.50
2023-02-04T12:58:51.018Z,5.70
2023-02-04T13:01:17.726Z,5.70
2023-02-04T13:03:44.539Z,5.70
2023-02-04T13:06:11.377Z,5.80
2023-02-04T13:08:38.118Z,5.80
2023-02-04T13:11:04.946Z,5.70
2023-02-04T13:13:31.699Z,5.80
2023-02-04T13:15:58.726Z,5.90
2023-02-04T13:18:25.590Z,6.00
2023-02-04T13:20:52.322Z,6.00
2023-02-04T13:23:19.097Z,6.10
2023-02-04T13:25:45.850Z,6.30
2023-02-04T13:28:12.736Z,6.40
2023-02-04T13:30:39.714Z,6.20
2023-02-04T13:33:06.600Z,6.20
2023-02-04T13:35:33.704Z,6.10
2023-02-04T13:38:00.714Z,6.20
2023-02-04T13:40:27.511Z,6.20
2023-02-04T13:42:54.268Z,6.00
2023-02-04T13:45:21.211Z,6.00
2023-02-04T13:47:49.014Z,5.90
2023-02-04T13:50:16.942Z,5.80
2023-02-04T13:52:44.081Z,5.80
2023-02-04T13:55:10.992Z,5.60
2023-02-04T13:57:38.111Z,5.40
2023-02-04T14:00:08.581Z,5.30
2023-02-04T14:02:35.471Z,5.30
2023-02-04T14:05:02.371Z,5.30
2023-02-04T14:07:30.607Z,5.30
2023-02-04T14:13:49.751Z,5.40
2023-02-04T14:16:16.769Z,5.30
2023-02-04T14:18:43.534Z,5.30
2023-02-04T14:21:10.286Z,5.30
2023-02-04T14:23:37.289Z,5.50
2023-02-04T14:26:04.293Z,5.60
2023-02-04T14:28:31.197Z,5.70
2023-02-04T14:30:57.992Z,5.70
2023-02-04T14:33:24.777Z,5.60
2023-02-04T14:35:51.630Z,5.80
2023-02-04T14:38:18.598Z,5.80
2023-02-04T14:40:45.871Z,5.80
2023-02-04T14:43:12.768Z,5.80
2023-02-04T14:45:40.234Z,5.90
2023-02-04T14:48:08.119Z,5.70
2023-02-04T14:50:35.808Z,5.70
2023-02-04T14:53:03.027Z,5.60
2023-02-04T14:55:29.802Z,5.60
2023-02-04T14:57:56.712Z,5.60
2023-02-04T15:00:23.601Z,5.60
2023-02-04T15:02:50.657Z,5.70
2023-02-04T15:05:17.582Z,5.70
2023-02-04T15:07:47.317Z,5.70
2023-02-04T15:10:15.377Z,5.60
2023-02-04T15:12:42.280Z,5.50
2023-02-04T15:15:09.657Z,5.50
2023-02-04T15:17:36.523Z,5.40
2023-02-04T15:20:05.033Z,5.20
2023-02-04T15:22:31.929Z,5.20
2023-02-04T15:24:58.711Z,5.10
2023-02-04T15:27:26.092Z,5.00
2023-02-04T15:29:53.461Z,5.00
2023-02-04T15:32:20.249Z,4.90
2023-02-04T15:34:46.979Z,4.90
2023-02-04T15:37:14.998Z,4.80
2023-02-04T15:39:43.651Z,4.70
2023-02-04T15:42:10.995Z,4.60
2023-02-04T15:44:38.000Z,4.50
2023-02-04T15:47:06.435Z,4.40
2023-02-04T15:49:33.899Z,4.30
2023-02-04T15:52:00.753Z,4.20
2023-02-04T15:54:27.510Z,4.10
2023-02-04T15:56:54.264Z,4.00
2023-02-04T15:59:21.073Z,4.00
2023-02-04T16:01:47.922Z,3.90
2023-02-04T16:04:14.815Z,3.80
2023-02-04T16:06:50.209Z,3.70
2023-02-04T16:09:20.439Z,3.70
2023-02-04T16:11:47.227Z,3.60
2023-02-04T16:14:14.332Z,3.50
2023-02-04T16:16:41.160Z,3.40
2023-02-04T16:19:08.003Z,3.40
2023-02-04T16:21:34.786Z,3.30
2023-02-04T16:24:01.625Z,3.20
2023-02-04T16:26:29.632Z,3.20
2023-02-04T16:28:56.463Z,3.10
2023-02-04T16:31:23.352Z,3.10
2023-02-04T16:33:50.344Z,3.00
2023-02-04T16:36:18.517Z,2.90
2023-02-04T16:38:46.026Z,2.90
2023-02-04T16:41:14.721Z,2.90
2023-02-04T16:43:41.660Z,2.80
2023-02-04T16:46:08.506Z,2.80
2023-02-04T16:48:36.474Z,2.70
2023-02-04T16:51:04.033Z,2.70
2023-02-04T16:53:30.808Z,2.60
2023-02-04T16:55:57.652Z,2.60
2023-02-04T16:58:24.507Z,2.50
2023-02-04T17:00:51.335Z,2.50
2023-02-04T17:03:18.116Z,2.40
2023-02-04T17:05:44.992Z,2.40
2023-02-04T17:08:13.563Z,2.30
2023-02-04T17:11:13.523Z,2.30
2023-02-04T17:13:40.320Z,2.20
2023-02-04T17:16:07.331Z,2.20
2023-02-04T17:18:34.159Z,2.10
2023-02-04T17:21:00.980Z,2.10
2023-02-04T17:23:28.722Z,2.00
2023-02-04T17:25:55.563Z,2.00
2023-02-04T17:28:23.323Z,1.90
2023-02-04T17:30:50.338Z,1.90
2023-02-04T17:33:17.185Z,1.90
2023-02-04T17:35:43.902Z,1.80
2023-02-04T17:38:10.700Z,1.80
2023-02-04T17:40:37.412Z,1.70
2023-02-04T17:43:04.991Z,1.60
2023-02-04T17:45:32.031Z,1.60
2023-02-04T17:47:59.154Z,1.50
2023-02-04T17:50:25.994Z,1.50
2023-02-04T17:52:52.845Z,1.50
2023-02-04T17:55:30.849Z,1.50
2023-02-04T17:58:01.682Z,1.50
2023-02-04T18:00:31.001Z,1.40
2023-02-04T18:02:58.432Z,1.40
2023-02-04T18:05:27.741Z,1.40
2023-02-04T18:08:15.800Z,1.30
2023-02-04T18:10:51.136Z,1.30
2023-02-04T18:13:33.124Z,1.30
2023-02-04T18:16:03.013Z,1.20
2023-02-04T18:18:37.697Z,1.30
2023-02-04T18:21:21.200Z,1.20
2023-02-04T18:24:01.226Z,1.10
2023-02-04T18:26:28.831Z,1.10
2023-02-04T18:28:55.713Z,1.00
2023-02-04T18:31:29.679Z,1.00
2023-02-04T18:33:57.345Z,0.90
2023-02-04T18:36:27.409Z,0.90
2023-02-04T18:38:55.268Z,0.80
2023-02-04T18:41:31.423Z,0.80
2023-02-04T18:44:16.830Z,0.70
2023-02-04T18:46:47.632Z,0.70
2023-02-04T18:49:32.628Z,0.60
2023-02-04T18:52:17.896Z,0.60
2023-02-04T18:54:56.482Z,0.50
2023-02-04T18:57:45.117Z,0.50
2023-02-04T19:00:13.661Z,0.50
2023-02-04T19:02:49.985Z,0.60
2023-02-04T19:05:42.581Z,0.60
2023-02-04T19:08:26.196Z,0.70
2023-02-04T19:10:56.209Z,0.70
2023-02-04T19:13:40.808Z,0.80
2023-02-04T19:16:13.517Z,0.80
2023-02-04T19:18:44.146Z,0.80
2023-02-04T19:21:22.153Z,0.80
2023-02-04T19:23:59.477Z,0.90
2023-02-04T19:26:32.228Z,0.90
2023-02-04T19:28:59.417Z,0.90
2023-02-04T19:31:36.897Z,0.90
2023-02-04T19:34:24.820Z,0.90
2023-02-04T19:36:53.486Z,1.00
2023-02-04T19:39:38.478Z,1.00
2023-02-04T19:42:27.275Z,1.00
2023-02-04T19:44:57.170Z,1.00
2023-02-04T19:47:42.364Z,0.90
2023-02-04T19:50:32.991Z,0.90
2023-02-04T19:53:01.307Z,0.90
2023-02-04T19:55:50.913Z,0.80
2023-02-04T19:58:27.284Z,0.80
2023-02-04T20:01:10.906Z,0.80
2023-02-04T20:03:42.037Z,0.80
2023-02-04T20:06:38.293Z,0.70
2023-02-04T20:09:23.021Z,0.80
2023-02-04T20:11:57.134Z,0.80
2023-02-04T20:14:36.064Z,0.80
2023-02-04T20:17:10.342Z,0.80
2023-02-04T20:19:38.056Z,0.80
2023-02-04T20:22:21.018Z,0.80
2023-02-04T20:24:53.747Z,0.80
2023-02-04T20:27:24.449Z,0.90
2023-02-04T20:30:20.997Z,0.80
2023-02-04T20:32:53.782Z,0.90
2023-02-04T20:35:20.626Z,0.90
2023-02-04T20:38:00.253Z,0.90
2023-02-04T20:40:31.868Z,0.90
2023-02-04T20:43:19.143Z,0.90
2023-02-04T20:45:45.848Z,0.90
2023-02-04T20:48:15.281Z,0.90
2023-02-04T20:50:44.887Z,1.00
2023-02-04T20:53:28.370Z,1.00
2023-02-04T20:56:03.550Z,1.00
2023-02-04T20:58:43.562Z,1.00
2023-02-04T21:01:40.093Z,1.00
2023-02-04T21:04:23.027Z,1.00
2023-02-04T21:07:04.070Z,1.00
2023-02-04T21:09:34.175Z,1.00
2023-02-04T21:12:02.353Z,1.00
2023-02-04T21:14:30.116Z,1.00
2023-02-04T21:16:56.889Z,1.00
2023-02-04T21:19:25.431Z,1.00
2023-02-04T21:21:52.485Z,1.00
2023-02-04T21:24:19.455Z,1.00
2023-02-04T21:26:46.270Z,1.00
2023-02-04T21:29:13.225Z,1.00
2023-02-04T21:31:40.631Z,1.00
2023-02-04T21:34:08.119Z,1.00
2023-02-04T21:36:35.156Z,1.00
2023-02-04T21:39:02.040Z,0.90
2023-02-04T21:41:28.851Z,0.90
2023-02-04T21:43:55.692Z,0.90
2023-02-04T21:46:22.588Z,0.90
2023-02-04T21:48:49.461Z,0.80
2023-02-04T21:51:16.212Z,0.80
2023-02-04T21:53:44.346Z,0.80
2023-02-04T21:56:11.473Z,0.80
2023-02-04T21:58:38.800Z,0.80
2023-02-04T22:01:05.753Z,0.80
2023-02-04T22:03:32.747Z,0.70
2023-02-04T22:05:59.596Z,0.80
2023-02-04T22:08:26.391Z,0.70
2023-02-04T22:10:53.137Z,0.70
2023-02-04T22:13:38.348Z,0.70
2023-02-04T22:16:05.285Z,0.70
2023-02-04T22:18:32.301Z,0.60
2023-02-04T22:20:59.135Z,0.60
2023-02-04T22:23:25.927Z,0.50
2023-02-04T22:25:52.872Z,0.50
2023-02-04T22:28:19.803Z,0.50
2023-02-04T22:30:46.777Z,0.40
2023-02-04T22:33:14.336Z,0.40
2023-02-04T22:35:41.172Z,0.40
2023-02-04T22:38:08.101Z,0.30
2023-02-04T22:40:34.900Z,0.20
2023-02-04T22:43:01.664Z,0.20
2023-02-04T22:45:28.379Z,0.10
2023-02-04T22:47:55.140Z,0.10
2023-02-04T22:50:21.877Z,0.00
2023-02-04T22:52:48.666Z,0.00
2023-02-04T22:55:15.470Z,-0.10
2023-02-04T22:57:42.212Z,-0.20
2023-02-04T23:00:10.177Z,-0.20
2023-02-04T23:02:37.033Z,-0.30
2023-02-04T23:05:04.655Z,-0.30
2023-02-04T23:07:31.917Z,-0.40
2023-02-04T23:09:58.656Z,-0.40
2023-02-04T23:12:25.666Z,-0.50
2023-02-04T23:14:52.425Z,-0.50
2023-02-04T23:17:19.208Z,-0.60
2023-02-04T23:19:46.483Z,-0.60
2023-02-04T23:22:14.580Z,-0.60
2023-02-04T23:24:44.636Z,-0.70
2023-02-04T23:27:12.009Z,-0.70
2023-02-04T23:29:39.968Z,-0.80
2023-02-04T23:32:06.931Z,-0.80
2023-02-04T23:34:33.994Z,-0.80
2023-02-04T23:37:01.461Z,-0.80
2023-02-04T23:39:28.668Z,-0.90
2023-02-04T23:41:55.562Z,-0.90
2023-02-04T23:44:22.786Z,-0.80
2023-02-04T23:46:49.610Z,-0.80
2023-02-04T23:49:16.581Z,-0.80
2023-02-04T23:51:43.555Z,-0.80
2023-02-04T23:54:10.384Z,-0.80
2023-02-04T23:56:37.153Z,-0.90
2023-02-04T23:59:04.452Z,-0.90
